sensor_id;sensor_type;location;lat;lon;timestamp;P1;durP1;ratioP1;P2;durP2;ratioP2
39728;SDS011;25402;42.004;23.088;2022-10-26T00:02:34;26.92;;;7.80;;
39728;SDS011;25402;42.004;23.088;2022-10-26T00:05:21;43.78;;;8.90;;
39728;SDS011;25402;42.004;23.088;2022-10-26T00:08:11;36.67;;;8.30;;
39728;SDS011;25402;42.004;23.088;2022-10-26T00:10:51;45.75;;;8.40;;
39728;SDS011;25402;42.004;23.088;2022-10-26T00:13:26;36.95;;;9.18;;
39728;SDS011;25402;42.004;23.088;2022-10-26T00:16:14;33.15;;;8.50;;
39728;SDS011;25402;42.004;23.088;2022-10-26T00:18:54;37.38;;;8.48;;
39728;SDS011;25402;42.004;23.088;2022-10-26T00:21:36;26.03;;;7.67;;
39728;SDS011;25402;42.004;23.088;2022-10-26T00:27:38;56.97;;;15.27;;
39728;SDS011;25402;42.004;23.088;2022-10-26T00:30:30;60.47;;;15.50;;
39728;SDS011;25402;42.004;23.088;2022-10-26T00:33:29;58.50;;;13.77;;
39728;SDS011;25402;42.004;23.088;2022-10-26T00:36:13;56.33;;;12.85;;
39728;SDS011;25402;42.004;23.088;2022-10-26T00:38:55;47.70;;;12.38;;
39728;SDS011;25402;42.004;23.088;2022-10-26T00:41:59;72.30;;;12.32;;
39728;SDS011;25402;42.004;23.088;2022-10-26T00:50:59;37.17;;;12.00;;
39728;SDS011;25402;42.004;23.088;2022-10-26T00:53:34;38.88;;;10.60;;
39728;SDS011;25402;42.004;23.088;2022-10-26T00:58:46;42.38;;;11.05;;
39728;SDS011;25402;42.004;23.088;2022-10-26T01:01:20;42.60;;;10.88;;
39728;SDS011;25402;42.004;23.088;2022-10-26T01:03:59;59.38;;;12.48;;
39728;SDS011;25402;42.004;23.088;2022-10-26T01:06:28;69.53;;;14.77;;
39728;SDS011;25402;42.004;23.088;2022-10-26T01:09:09;40.80;;;10.43;;
39728;SDS011;25402;42.004;23.088;2022-10-26T01:11:57;72.00;;;12.40;;
39728;SDS011;25402;42.004;23.088;2022-10-26T01:14:42;55.75;;;12.15;;
39728;SDS011;25402;42.004;23.088;2022-10-26T01:17:34;50.15;;;13.77;;
39728;SDS011;25402;42.004;23.088;2022-10-26T01:26:57;65.88;;;13.05;;
39728;SDS011;25402;42.004;23.088;2022-10-26T01:33:28;82.53;;;14.02;;
39728;SDS011;25402;42.004;23.088;2022-10-26T01:36:11;55.78;;;15.50;;
39728;SDS011;25402;42.004;23.088;2022-10-26T01:39:00;61.03;;;13.73;;
39728;SDS011;25402;42.004;23.088;2022-10-26T01:45:06;61.42;;;12.55;;
39728;SDS011;25402;42.004;23.088;2022-10-26T01:55:01;73.68;;;12.77;;
39728;SDS011;25402;42.004;23.088;2022-10-26T01:57:55;66.40;;;11.48;;
39728;SDS011;25402;42.004;23.088;2022-10-26T02:00:57;69.70;;;13.70;;
39728;SDS011;25402;42.004;23.088;2022-10-26T02:03:52;58.20;;;11.52;;
39728;SDS011;25402;42.004;23.088;2022-10-26T02:10:09;62.30;;;12.00;;
39728;SDS011;25402;42.004;23.088;2022-10-26T02:13:09;51.05;;;11.40;;
39728;SDS011;25402;42.004;23.088;2022-10-26T02:16:27;58.97;;;10.38;;
39728;SDS011;25402;42.004;23.088;2022-10-26T02:19:31;63.10;;;11.73;;
39728;SDS011;25402;42.004;23.088;2022-10-26T02:22:18;60.25;;;11.88;;
39728;SDS011;25402;42.004;23.088;2022-10-26T02:28:56;88.35;;;16.33;;
39728;SDS011;25402;42.004;23.088;2022-10-26T02:31:37;68.35;;;13.43;;
39728;SDS011;25402;42.004;23.088;2022-10-26T02:34:50;81.53;;;17.55;;
39728;SDS011;25402;42.004;23.088;2022-10-26T02:37:32;63.63;;;12.77;;
39728;SDS011;25402;42.004;23.088;2022-10-26T02:41:06;75.63;;;17.67;;
39728;SDS011;25402;42.004;23.088;2022-10-26T02:50:13;57.42;;;14.18;;
39728;SDS011;25402;42.004;23.088;2022-10-26T02:53:09;57.10;;;15.93;;
39728;SDS011;25402;42.004;23.088;2022-10-26T02:56:02;61.03;;;18.23;;
39728;SDS011;25402;42.004;23.088;2022-10-26T02:58:41;65.47;;;16.52;;
39728;SDS011;25402;42.004;23.088;2022-10-26T03:01:31;62.47;;;14.02;;
39728;SDS011;25402;42.004;23.088;2022-10-26T03:24:19;34.88;;;8.05;;
39728;SDS011;25402;42.004;23.088;2022-10-26T03:26:49;36.03;;;8.05;;
39728;SDS011;25402;42.004;23.088;2022-10-26T03:29:16;30.20;;;7.55;;
39728;SDS011;25402;42.004;23.088;2022-10-26T03:31:43;47.90;;;8.48;;
39728;SDS011;25402;42.004;23.088;2022-10-26T03:34:10;30.25;;;6.85;;
39728;SDS011;25402;42.004;23.088;2022-10-26T03:36:38;28.98;;;7.45;;
39728;SDS011;25402;42.004;23.088;2022-10-26T03:39:07;32.83;;;8.48;;
39728;SDS011;25402;42.004;23.088;2022-10-26T03:41:35;32.70;;;8.05;;
39728;SDS011;25402;42.004;23.088;2022-10-26T03:44:02;43.92;;;10.05;;
39728;SDS011;25402;42.004;23.088;2022-10-26T03:46:29;42.22;;;9.85;;
39728;SDS011;25402;42.004;23.088;2022-10-26T03:48:57;33.33;;;8.65;;
39728;SDS011;25402;42.004;23.088;2022-10-26T03:51:24;35.22;;;8.68;;
39728;SDS011;25402;42.004;23.088;2022-10-26T03:53:52;37.50;;;9.02;;
39728;SDS011;25402;42.004;23.088;2022-10-26T03:56:19;38.03;;;9.27;;
39728;SDS011;25402;42.004;23.088;2022-10-26T03:58:47;37.95;;;9.60;;
39728;SDS011;25402;42.004;23.088;2022-10-26T04:01:14;37.35;;;9.60;;
39728;SDS011;25402;42.004;23.088;2022-10-26T04:03:41;28.85;;;8.60;;
39728;SDS011;25402;42.004;23.088;2022-10-26T04:06:08;35.70;;;10.35;;
39728;SDS011;25402;42.004;23.088;2022-10-26T04:08:36;34.88;;;11.55;;
39728;SDS011;25402;42.004;23.088;2022-10-26T04:11:03;44.50;;;11.10;;
39728;SDS011;25402;42.004;23.088;2022-10-26T04:13:30;47.28;;;11.13;;
39728;SDS011;25402;42.004;23.088;2022-10-26T04:15:58;38.63;;;10.48;;
39728;SDS011;25402;42.004;23.088;2022-10-26T04:18:25;39.10;;;11.32;;
39728;SDS011;25402;42.004;23.088;2022-10-26T04:20:52;28.73;;;10.80;;
39728;SDS011;25402;42.004;23.088;2022-10-26T04:23:19;33.15;;;10.57;;
39728;SDS011;25402;42.004;23.088;2022-10-26T04:25:47;38.30;;;10.48;;
39728;SDS011;25402;42.004;23.088;2022-10-26T04:28:14;34.63;;;11.43;;
39728;SDS011;25402;42.004;23.088;2022-10-26T04:30:41;30.23;;;10.88;;
39728;SDS011;25402;42.004;23.088;2022-10-26T04:33:09;45.10;;;11.98;;
39728;SDS011;25402;42.004;23.088;2022-10-26T04:35:36;46.30;;;12.93;;
39728;SDS011;25402;42.004;23.088;2022-10-26T04:38:04;37.42;;;11.02;;
39728;SDS011;25402;42.004;23.088;2022-10-26T04:40:32;68.35;;;15.55;;
39728;SDS011;25402;42.004;23.088;2022-10-26T04:43:00;69.95;;;18.20;;
39728;SDS011;25402;42.004;23.088;2022-10-26T04:52:10;71.70;;;18.40;;
39728;SDS011;25402;42.004;23.088;2022-10-26T04:54:45;72.72;;;21.77;;
39728;SDS011;25402;42.004;23.088;2022-10-26T04:57:12;83.45;;;21.80;;
39728;SDS011;25402;42.004;23.088;2022-10-26T04:59:41;68.72;;;17.58;;
39728;SDS011;25402;42.004;23.088;2022-10-26T05:02:29;84.40;;;16.98;;
39728;SDS011;25402;42.004;23.088;2022-10-26T05:05:07;106.20;;;19.00;;
39728;SDS011;25402;42.004;23.088;2022-10-26T05:07:38;79.00;;;17.40;;
39728;SDS011;25402;42.004;23.088;2022-10-26T05:12:55;69.40;;;15.32;;
39728;SDS011;25402;42.004;23.088;2022-10-26T05:15:37;66.38;;;15.93;;
39728;SDS011;25402;42.004;23.088;2022-10-26T05:18:22;70.25;;;15.02;;
39728;SDS011;25402;42.004;23.088;2022-10-26T05:23:59;60.20;;;14.27;;
39728;SDS011;25402;42.004;23.088;2022-10-26T05:26:28;66.70;;;19.58;;
39728;SDS011;25402;42.004;23.088;2022-10-26T05:29:08;86.32;;;18.42;;
39728;SDS011;25402;42.004;23.088;2022-10-26T05:36:13;99.43;;;36.80;;
39728;SDS011;25402;42.004;23.088;2022-10-26T05:46:13;64.45;;;19.98;;
39728;SDS011;25402;42.004;23.088;2022-10-26T05:59:28;56.53;;;15.02;;
39728;SDS011;25402;42.004;23.088;2022-10-26T06:53:54;39.20;;;11.95;;
39728;SDS011;25402;42.004;23.088;2022-10-26T06:56:40;59.10;;;16.27;;
39728;SDS011;25402;42.004;23.088;2022-10-26T06:59:26;53.83;;;17.30;;
39728;SDS011;25402;42.004;23.088;2022-10-26T07:01:58;51.05;;;15.48;;
39728;SDS011;25402;42.004;23.088;2022-10-26T07:04:25;85.55;;;36.55;;
39728;SDS011;25402;42.004;23.088;2022-10-26T07:07:01;112.53;;;45.58;;
39728;SDS011;25402;42.004;23.088;2022-10-26T07:09:29;113.70;;;41.60;;
39728;SDS011;25402;42.004;23.088;2022-10-26T07:46:57;42.00;;;10.73;;
39728;SDS011;25402;42.004;23.088;2022-10-26T07:49:41;34.33;;;9.43;;
39728;SDS011;25402;42.004;23.088;2022-10-26T07:52:15;41.85;;;8.90;;
39728;SDS011;25402;42.004;23.088;2022-10-26T07:55:11;31.40;;;8.68;;
39728;SDS011;25402;42.004;23.088;2022-10-26T08:24:40;37.35;;;8.18;;
39728;SDS011;25402;42.004;23.088;2022-10-26T08:37:43;27.95;;;7.97;;
39728;SDS011;25402;42.004;23.088;2022-10-26T08:45:34;37.22;;;7.57;;
39728;SDS011;25402;42.004;23.088;2022-10-26T08:48:06;36.40;;;6.30;;
39728;SDS011;25402;42.004;23.088;2022-10-26T08:50:48;17.17;;;5.85;;
39728;SDS011;25402;42.004;23.088;2022-10-26T08:53:31;29.00;;;6.40;;
39728;SDS011;25402;42.004;23.088;2022-10-26T08:56:09;30.92;;;6.55;;
39728;SDS011;25402;42.004;23.088;2022-10-26T08:58:44;25.65;;;6.28;;
39728;SDS011;25402;42.004;23.088;2022-10-26T09:01:19;21.17;;;6.05;;
39728;SDS011;25402;42.004;23.088;2022-10-26T09:03:47;21.67;;;6.55;;
39728;SDS011;25402;42.004;23.088;2022-10-26T09:06:16;26.85;;;6.47;;
39728;SDS011;25402;42.004;23.088;2022-10-26T09:08:54;48.50;;;9.15;;
39728;SDS011;25402;42.004;23.088;2022-10-26T09:11:40;34.42;;;7.10;;
39728;SDS011;25402;42.004;23.088;2022-10-26T09:14:18;32.35;;;10.82;;
39728;SDS011;25402;42.004;23.088;2022-10-26T09:17:00;56.88;;;15.13;;
39728;SDS011;25402;42.004;23.088;2022-10-26T09:19:38;28.58;;;6.70;;
39728;SDS011;25402;42.004;23.088;2022-10-26T09:22:26;30.88;;;6.47;;
39728;SDS011;25402;42.004;23.088;2022-10-26T09:24:59;26.15;;;5.93;;
39728;SDS011;25402;42.004;23.088;2022-10-26T09:27:33;38.20;;;10.23;;
39728;SDS011;25402;42.004;23.088;2022-10-26T09:30:11;42.65;;;12.35;;
39728;SDS011;25402;42.004;23.088;2022-10-26T09:32:44;28.10;;;7.95;;
39728;SDS011;25402;42.004;23.088;2022-10-26T09:35:14;22.42;;;5.63;;
39728;SDS011;25402;42.004;23.088;2022-10-26T09:37:47;16.92;;;6.18;;
39728;SDS011;25402;42.004;23.088;2022-10-26T09:40:17;25.77;;;5.80;;
39728;SDS011;25402;42.004;23.088;2022-10-26T09:42:50;33.53;;;8.27;;
39728;SDS011;25402;42.004;23.088;2022-10-26T09:45:24;39.40;;;7.82;;
39728;SDS011;25402;42.004;23.088;2022-10-26T09:47:58;16.15;;;5.55;;
39728;SDS011;25402;42.004;23.088;2022-10-26T09:50:33;26.13;;;6.68;;
39728;SDS011;25402;42.004;23.088;2022-10-26T09:53:01;17.02;;;5.40;;
39728;SDS011;25402;42.004;23.088;2022-10-26T09:55:29;18.38;;;4.70;;
39728;SDS011;25402;42.004;23.088;2022-10-26T09:58:00;68.47;;;8.25;;
39728;SDS011;25402;42.004;23.088;2022-10-26T10:00:29;23.52;;;6.38;;
39728;SDS011;25402;42.004;23.088;2022-10-26T10:03:00;18.90;;;4.72;;
39728;SDS011;25402;42.004;23.088;2022-10-26T10:05:29;20.88;;;4.72;;
39728;SDS011;25402;42.004;23.088;2022-10-26T10:08:10;22.90;;;5.22;;
39728;SDS011;25402;42.004;23.088;2022-10-26T10:13:29;23.40;;;5.10;;
39728;SDS011;25402;42.004;23.088;2022-10-26T10:16:00;21.98;;;4.65;;
39728;SDS011;25402;42.004;23.088;2022-10-26T10:18:31;18.65;;;4.70;;
39728;SDS011;25402;42.004;23.088;2022-10-26T10:21:00;17.00;;;4.18;;
39728;SDS011;25402;42.004;23.088;2022-10-26T10:23:30;14.23;;;4.05;;
39728;SDS011;25402;42.004;23.088;2022-10-26T10:26:00;20.27;;;3.97;;
39728;SDS011;25402;42.004;23.088;2022-10-26T10:28:29;15.23;;;3.70;;
39728;SDS011;25402;42.004;23.088;2022-10-26T10:30:57;13.63;;;3.65;;
39728;SDS011;25402;42.004;23.088;2022-10-26T10:33:34;14.20;;;3.55;;
39728;SDS011;25402;42.004;23.088;2022-10-26T10:36:03;20.67;;;4.40;;
39728;SDS011;25402;42.004;23.088;2022-10-26T10:38:41;9.98;;;3.92;;
39728;SDS011;25402;42.004;23.088;2022-10-26T10:41:17;18.75;;;4.63;;
39728;SDS011;25402;42.004;23.088;2022-10-26T10:43:51;26.30;;;4.85;;
39728;SDS011;25402;42.004;23.088;2022-10-26T10:46:22;14.30;;;3.95;;
39728;SDS011;25402;42.004;23.088;2022-10-26T10:48:55;10.85;;;3.67;;
39728;SDS011;25402;42.004;23.088;2022-10-26T10:51:28;13.52;;;3.63;;
39728;SDS011;25402;42.004;23.088;2022-10-26T10:54:01;18.67;;;4.00;;
39728;SDS011;25402;42.004;23.088;2022-10-26T10:56:34;10.10;;;3.42;;
39728;SDS011;25402;42.004;23.088;2022-10-26T11:02:07;15.75;;;4.25;;
39728;SDS011;25402;42.004;23.088;2022-10-26T11:05:00;18.33;;;4.82;;
39728;SDS011;25402;42.004;23.088;2022-10-26T11:07:44;22.80;;;4.40;;
39728;SDS011;25402;42.004;23.088;2022-10-26T11:10:15;14.95;;;3.90;;
39728;SDS011;25402;42.004;23.088;2022-10-26T11:12:47;14.93;;;4.07;;
39728;SDS011;25402;42.004;23.088;2022-10-26T11:15:21;12.73;;;3.88;;
39728;SDS011;25402;42.004;23.088;2022-10-26T11:17:54;13.13;;;3.80;;
39728;SDS011;25402;42.004;23.088;2022-10-26T11:20:31;15.90;;;4.20;;
39728;SDS011;25402;42.004;23.088;2022-10-26T11:23:03;13.65;;;3.72;;
39728;SDS011;25402;42.004;23.088;2022-10-26T11:25:39;12.98;;;3.78;;
39728;SDS011;25402;42.004;23.088;2022-10-26T11:30:41;17.65;;;3.45;;
39728;SDS011;25402;42.004;23.088;2022-10-26T11:33:14;10.02;;;3.50;;
39728;SDS011;25402;42.004;23.088;2022-10-26T11:35:45;14.00;;;3.38;;
39728;SDS011;25402;42.004;23.088;2022-10-26T11:38:22;9.98;;;3.03;;
39728;SDS011;25402;42.004;23.088;2022-10-26T11:40:58;16.35;;;4.18;;
39728;SDS011;25402;42.004;23.088;2022-10-26T11:43:30;15.20;;;3.22;;
39728;SDS011;25402;42.004;23.088;2022-10-26T11:46:04;7.20;;;3.05;;
39728;SDS011;25402;42.004;23.088;2022-10-26T11:48:39;12.02;;;3.00;;
39728;SDS011;25402;42.004;23.088;2022-10-26T11:51:16;11.55;;;3.22;;
39728;SDS011;25402;42.004;23.088;2022-10-26T11:54:00;11.93;;;3.20;;
39728;SDS011;25402;42.004;23.088;2022-10-26T11:56:37;16.83;;;2.65;;
39728;SDS011;25402;42.004;23.088;2022-10-26T11:59:13;12.85;;;3.00;;
39728;SDS011;25402;42.004;23.088;2022-10-26T12:01:45;14.80;;;3.40;;
39728;SDS011;25402;42.004;23.088;2022-10-26T12:04:14;13.43;;;3.33;;
39728;SDS011;25402;42.004;23.088;2022-10-26T12:06:48;10.85;;;5.05;;
39728;SDS011;25402;42.004;23.088;2022-10-26T12:09:20;20.92;;;3.63;;
39728;SDS011;25402;42.004;23.088;2022-10-26T12:11:52;16.05;;;4.22;;
39728;SDS011;25402;42.004;23.088;2022-10-26T12:14:28;21.27;;;8.55;;
39728;SDS011;25402;42.004;23.088;2022-10-26T12:17:04;11.07;;;4.63;;
39728;SDS011;25402;42.004;23.088;2022-10-26T12:19:41;12.07;;;2.97;;
39728;SDS011;25402;42.004;23.088;2022-10-26T12:22:17;15.75;;;3.38;;
39728;SDS011;25402;42.004;23.088;2022-10-26T12:24:46;9.07;;;2.50;;
39728;SDS011;25402;42.004;23.088;2022-10-26T12:27:33;14.40;;;2.33;;
39728;SDS011;25402;42.004;23.088;2022-10-26T12:30:23;12.80;;;2.40;;
39728;SDS011;25402;42.004;23.088;2022-10-26T12:32:54;14.20;;;2.80;;
39728;SDS011;25402;42.004;23.088;2022-10-26T12:35:32;15.73;;;2.67;;
39728;SDS011;25402;42.004;23.088;2022-10-26T12:41:26;8.40;;;2.30;;
39728;SDS011;25402;42.004;23.088;2022-10-26T12:43:55;14.38;;;2.72;;
39728;SDS011;25402;42.004;23.088;2022-10-26T12:58:26;12.05;;;2.42;;
39728;SDS011;25402;42.004;23.088;2022-10-26T13:01:10;17.42;;;1.85;;
39728;SDS011;25402;42.004;23.088;2022-10-26T13:03:51;16.38;;;2.47;;
39728;SDS011;25402;42.004;23.088;2022-10-26T13:06:31;9.98;;;2.30;;
39728;SDS011;25402;42.004;23.088;2022-10-26T13:09:14;13.38;;;2.30;;
39728;SDS011;25402;42.004;23.088;2022-10-26T13:11:46;14.32;;;2.15;;
39728;SDS011;25402;42.004;23.088;2022-10-26T13:14:19;16.92;;;2.28;;
39728;SDS011;25402;42.004;23.088;2022-10-26T13:16:49;12.63;;;2.40;;
39728;SDS011;25402;42.004;23.088;2022-10-26T13:19:24;14.05;;;2.22;;
39728;SDS011;25402;42.004;23.088;2022-10-26T13:21:57;11.43;;;2.22;;
39728;SDS011;25402;42.004;23.088;2022-10-26T13:24:25;12.38;;;2.70;;
39728;SDS011;25402;42.004;23.088;2022-10-26T13:32:48;9.38;;;2.00;;
39728;SDS011;25402;42.004;23.088;2022-10-26T13:35:18;8.65;;;2.53;;
39728;SDS011;25402;42.004;23.088;2022-10-26T13:37:48;12.20;;;2.30;;
39728;SDS011;25402;42.004;23.088;2022-10-26T13:40:19;16.70;;;2.70;;
39728;SDS011;25402;42.004;23.088;2022-10-26T13:42:49;13.18;;;2.83;;
39728;SDS011;25402;42.004;23.088;2022-10-26T13:45:21;12.55;;;2.45;;
39728;SDS011;25402;42.004;23.088;2022-10-26T13:47:54;10.82;;;2.22;;
39728;SDS011;25402;42.004;23.088;2022-10-26T13:50:25;20.92;;;2.72;;
39728;SDS011;25402;42.004;23.088;2022-10-26T13:52:59;10.02;;;2.65;;
39728;SDS011;25402;42.004;23.088;2022-10-26T13:55:34;8.95;;;2.13;;
39728;SDS011;25402;42.004;23.088;2022-10-26T13:58:13;10.82;;;2.53;;
39728;SDS011;25402;42.004;23.088;2022-10-26T14:03:40;11.18;;;2.35;;
39728;SDS011;25402;42.004;23.088;2022-10-26T14:06:10;9.57;;;2.25;;
39728;SDS011;25402;42.004;23.088;2022-10-26T14:08:42;9.60;;;1.85;;
39728;SDS011;25402;42.004;23.088;2022-10-26T14:11:12;33.25;;;4.30;;
39728;SDS011;25402;42.004;23.088;2022-10-26T14:13:40;20.92;;;4.70;;
39728;SDS011;25402;42.004;23.088;2022-10-26T14:16:08;13.52;;;2.60;;
39728;SDS011;25402;42.004;23.088;2022-10-26T14:18:37;11.40;;;2.38;;
39728;SDS011;25402;42.004;23.088;2022-10-26T14:21:05;15.27;;;2.75;;
39728;SDS011;25402;42.004;23.088;2022-10-26T14:23:44;17.42;;;2.38;;
39728;SDS011;25402;42.004;23.088;2022-10-26T14:26:19;12.13;;;2.65;;
39728;SDS011;25402;42.004;23.088;2022-10-26T14:28:48;12.65;;;2.28;;
39728;SDS011;25402;42.004;23.088;2022-10-26T14:31:20;15.25;;;2.30;;
39728;SDS011;25402;42.004;23.088;2022-10-26T14:33:51;8.05;;;2.53;;
39728;SDS011;25402;42.004;23.088;2022-10-26T14:36:20;9.18;;;2.30;;
39728;SDS011;25402;42.004;23.088;2022-10-26T14:38:53;21.90;;;2.40;;
39728;SDS011;25402;42.004;23.088;2022-10-26T14:41:24;23.70;;;2.72;;
39728;SDS011;25402;42.004;23.088;2022-10-26T14:43:53;10.82;;;2.45;;
39728;SDS011;25402;42.004;23.088;2022-10-26T14:46:22;8.93;;;2.17;;
39728;SDS011;25402;42.004;23.088;2022-10-26T14:48:51;11.77;;;3.05;;
39728;SDS011;25402;42.004;23.088;2022-10-26T14:51:24;11.38;;;2.65;;
39728;SDS011;25402;42.004;23.088;2022-10-26T14:53:53;23.10;;;3.65;;
39728;SDS011;25402;42.004;23.088;2022-10-26T14:56:24;17.27;;;2.70;;
39728;SDS011;25402;42.004;23.088;2022-10-26T14:58:54;19.98;;;2.92;;
39728;SDS011;25402;42.004;23.088;2022-10-26T15:01:30;12.93;;;2.67;;
39728;SDS011;25402;42.004;23.088;2022-10-26T15:04:00;22.80;;;3.15;;
39728;SDS011;25402;42.004;23.088;2022-10-26T15:06:41;11.27;;;2.53;;
39728;SDS011;25402;42.004;23.088;2022-10-26T15:12:03;13.25;;;2.80;;
39728;SDS011;25402;42.004;23.088;2022-10-26T15:14:31;13.10;;;2.78;;
39728;SDS011;25402;42.004;23.088;2022-10-26T15:17:00;15.32;;;3.42;;
39728;SDS011;25402;42.004;23.088;2022-10-26T15:19:30;16.23;;;3.28;;
39728;SDS011;25402;42.004;23.088;2022-10-26T15:21:58;11.55;;;2.53;;
39728;SDS011;25402;42.004;23.088;2022-10-26T15:24:28;11.25;;;3.03;;
39728;SDS011;25402;42.004;23.088;2022-10-26T15:26:58;18.35;;;3.15;;
39728;SDS011;25402;42.004;23.088;2022-10-26T15:29:36;17.65;;;3.35;;
39728;SDS011;25402;42.004;23.088;2022-10-26T15:32:14;16.95;;;4.50;;
39728;SDS011;25402;42.004;23.088;2022-10-26T15:35:04;18.65;;;3.75;;
39728;SDS011;25402;42.004;23.088;2022-10-26T15:37:37;30.77;;;4.90;;
39728;SDS011;25402;42.004;23.088;2022-10-26T15:40:05;31.83;;;5.28;;
39728;SDS011;25402;42.004;23.088;2022-10-26T15:42:34;41.90;;;4.95;;
39728;SDS011;25402;42.004;23.088;2022-10-26T15:45:03;41.28;;;5.63;;
39728;SDS011;25402;42.004;23.088;2022-10-26T15:47:39;57.35;;;6.28;;
39728;SDS011;25402;42.004;23.088;2022-10-26T15:50:11;45.35;;;5.85;;
39728;SDS011;25402;42.004;23.088;2022-10-26T15:55:16;33.67;;;5.70;;
